Time;durP1;ratioP1;P1;durP2;ratioP2;P2;SDS_P1;SDS_P2;PMS_P1;PMS_P2;Temp;Humidity;BMP_temperature;BMP_pressure;BME280_temperature;BME280_humidity;BME280_pressure;Samples;Min_cycle;Max_cycle;Signal;HPM_P1;HPM_P2
2021/08/01 00:01:21;;;;;;;;;;;;;;;28.77;48.97;100176.98;1840063;76;20198;-57
2021/08/01 00:03:47;;;;;;;;;;;;;;;28.77;48.99;100176.20;1844466;76;20150;-56
2021/08/01 00:06:14;;;;;;;;;;;;;;;28.76;48.97;100171.20;1843929;76;21157;-57
2021/08/01 00:08:40;;;;;;;;;;;;;;;28.76;49.01;100172.59;1846798;76;20151;-57
2021/08/01 00:11:06;;;;;;;;;;;;;;;28.77;49.05;100170.61;1845209;76;20140;-57
2021/08/01 00:13:32;;;;;;;;;;;;;;;28.76;49.06;100161.40;1840448;76;20213;-57
2021/08/01 00:15:59;;;;;;;;;;;;;;;28.77;49.06;100172.00;1843576;76;20207;-57
2021/08/01 00:18:25;;;;;;;;;;;;;;;28.77;49.08;100170.61;1840943;76;21125;-57
2021/08/01 00:20:51;;;;;;;;;;;;;;;28.77;49.09;100170.61;1841520;76;20219;-57
2021/08/01 00:23:17;;;;;;;;;;;;;;;28.76;49.12;100163.39;1844331;76;20167;-57
2021/08/01 00:25:43;;;;;;;;;;;;;;;28.77;49.14;100166.41;1839429;76;20380;-57
2021/08/01 00:28:09;;;;;;;;;;;;;;;28.74;49.15;100165.17;1846322;76;20214;-57
2021/08/01 00:30:35;;;;;;;;;;;;;;;28.77;49.18;100169.20;1843096;76;21034;-57
2021/08/01 00:33:01;;;;;;;;;;;;;;;28.76;49.20;100164.20;1847331;76;20649;-57
2021/08/01 00:35:28;;;;;;;;;;;;;;;28.75;49.23;100162.58;1839151;76;20279;-57
2021/08/01 00:37:54;;;;;;;;;;;;;;;28.75;49.25;100134.59;1841249;76;20127;-57
2021/08/01 00:40:22;;;;;;;;;;;;;;;28.76;49.27;100120.00;1844310;76;20226;-57
2021/08/01 00:42:51;;;;;;;;;;;;;;;28.75;49.28;100106.59;1841674;76;21516;-57
2021/08/01 00:45:17;;;;;;;;;;;;;;;28.75;49.30;100098.20;1839301;77;20371;-58
2021/08/01 00:47:43;;;;;;;;;;;;;;;28.74;49.33;100101.37;1843956;76;20226;-58
2021/08/01 00:50:11;;;;;;;;;;;;;;;28.75;49.34;100109.39;1843909;76;20335;-57
2021/08/01 00:52:37;;;;;;;;;;;;;;;28.74;49.36;100111.98;1840627;76;20146;-58
2021/08/01 00:55:05;;;;;;;;;;;;;;;28.74;49.38;100118.98;1842701;76;21288;-57
2021/08/01 00:57:31;;;;;;;;;;;;;;;28.73;49.39;100108.97;1843607;76;20215;-57
2021/08/01 00:59:57;;;;;;;;;;;;;;;28.73;49.42;100110.37;1845620;76;20187;-56
2021/08/01 01:02:26;;;;;;;;;;;;;;;28.73;49.43;100111.77;1844225;76;20156;-58
2021/08/01 01:05:12;;;;;;;;;;;;;;;28.74;49.45;100109.77;1842556;76;20134;-57
2021/08/01 01:07:40;;;;;;;;;;;;;;;28.73;49.46;100106.79;1838271;76;21072;-57
2021/08/01 01:10:13;;;;;;;;;;;;;;;28.71;49.47;100118.37;1841653;76;20130;-57
2021/08/01 01:12:46;;;;;;;;;;;;;;;28.72;49.52;100122.78;1839009;76;20162;-57
2021/08/01 01:15:14;;;;;;;;;;;;;;;28.72;49.52;100127.57;1840806;76;20165;-58
2021/08/01 01:17:42;;;;;;;;;;;;;;;28.71;49.55;100132.36;1842536;76;20182;-57
2021/08/01 01:20:20;;;;;;;;;;;;;;;28.72;49.55;100130.38;1845633;76;21149;-57
2021/08/01 01:23:17;;;;;;;;;;;;;;;28.70;49.57;100120.95;1843401;76;20274;-58
2021/08/01 01:25:46;;;;;;;;;;;;;;;28.71;49.60;100133.77;1778691;79;20410;-57
2021/08/01 01:28:22;;;;;;;;;;;;;;;28.70;49.60;100119.55;1774762;79;21000;-57
2021/08/01 01:30:52;;;;;;;;;;;;;;;28.69;49.61;100115.11;1809329;76;20168;-58
2021/08/01 01:33:18;;;;;;;;;;;;;;;28.69;49.62;100103.91;1818165;77;21237;-57
2021/08/01 01:35:47;;;;;;;;;;;;;;;28.69;49.64;100101.11;1818246;77;20132;-57
2021/08/01 01:38:13;;;;;;;;;;;;;;;28.68;49.68;100088.92;1843505;76;20250;-57
2021/08/01 01:40:39;;;;;;;;;;;;;;;28.68;49.70;100100.12;1844942;76;20211;-57
2021/08/01 01:43:06;;;;;;;;;;;;;;;28.69;49.73;100101.70;1845070;76;20151;-58
2021/08/01 01:45:34;;;;;;;;;;;;;;;28.67;49.74;100088.12;1785996;77;21065;-58
2021/08/01 01:48:00;;;;;;;;;;;;;;;28.67;49.77;100096.52;1842107;76;21587;-58
2021/08/01 01:50:26;;;;;;;;;;;;;;;28.67;49.77;100097.91;1838914;76;20248;-58
2021/08/01 01:52:52;;;;;;;;;;;;;;;28.68;49.78;100107.12;1836450;76;20341;-57
2021/08/01 01:55:19;;;;;;;;;;;;;;;28.67;49.79;100108.30;1839859;76;20152;-57
2021/08/01 01:57:45;;;;;;;;;;;;;;;28.67;49.84;100107.71;1812443;76;21031;-58
2021/08/01 02:00:12;;;;;;;;;;;;;;;28.67;49.84;100097.91;1836182;76;20200;-58
2021/08/01 02:02:38;;;;;;;;;;;;;;;28.67;49.85;100100.72;1836510;76;20179;-58
2021/08/01 02:05:05;;;;;;;;;;;;;;;28.66;49.87;100101.09;1848149;76;20374;-58
2021/08/01 02:07:32;;;;;;;;;;;;;;;28.66;49.89;100099.09;1838654;76;20457;-58
2021/08/01 02:10:14;;;;;;;;;;;;;;;28.65;49.89;100100.28;1843718;76;21090;-58
2021/08/01 02:12:48;;;;;;;;;;;;;;;28.66;49.92;100088.50;1842746;76;20129;-57
2021/08/01 02:15:19;;;;;;;;;;;;;;;28.65;49.91;100091.08;1838065;76;20203;-58
2021/08/01 02:17:58;;;;;;;;;;;;;;;28.65;49.94;100091.89;1842212;76;20905;-58
2021/08/01 02:20:28;;;;;;;;;;;;;;;28.65;49.94;100093.88;1835653;76;20126;-58
2021/08/01 02:22:54;;;;;;;;;;;;;;;28.63;49.96;100088.69;1840663;76;21922;-58
2021/08/01 02:25:20;;;;;;;;;;;;;;;28.64;49.97;100097.30;1842099;76;20155;-58
2021/08/01 02:27:46;;;;;;;;;;;;;;;28.64;49.98;100099.30;1840690;76;20138;-58
2021/08/01 02:30:13;;;;;;;;;;;;;;;28.63;50.00;100105.48;1839068;76;20248;-58
2021/08/01 02:32:39;;;;;;;;;;;;;;;28.63;50.03;100113.88;1839616;76;20163;-58
2021/08/01 02:35:06;;;;;;;;;;;;;;;28.61;50.04;100121.26;1838602;76;21067;-57
2021/08/01 02:37:32;;;;;;;;;;;;;;;28.62;50.05;100130.46;1839165;76;20390;-58
2021/08/01 02:39:58;;;;;;;;;;;;;;;28.63;50.08;100141.06;1837637;76;20411;-58
2021/08/01 02:42:24;;;;;;;;;;;;;;;28.62;50.08;100145.86;1840482;77;20140;-57
2021/08/01 02:44:51;;;;;;;;;;;;;;;28.61;50.09;100152.64;1838151;76;20217;-57
2021/08/01 02:47:18;;;;;;;;;;;;;;;28.61;50.12;100147.84;1839453;76;21124;-58
2021/08/01 02:49:45;;;;;;;;;;;;;;;28.60;50.12;100147.62;1830989;76;20158;-58
2021/08/01 02:52:12;;;;;;;;;;;;;;;28.61;50.15;100145.64;1792352;78;20159;-57
2021/08/01 02:54:39;;;;;;;;;;;;;;;28.60;50.14;100143.44;1806271;78;20463;-58
2021/08/01 02:57:05;;;;;;;;;;;;;;;28.60;50.14;100145.45;1795374;78;20217;-58
2021/08/01 02:59:32;;;;;;;;;;;;;;;28.60;50.16;100151.05;1800301;78;21208;-57
2021/08/01 03:01:58;;;;;;;;;;;;;;;28.60;50.19;100153.85;1796194;78;20167;-57
2021/08/01 03:04:24;;;;;;;;;;;;;;;28.60;50.20;100153.85;1802696;77;20237;-58
2021/08/01 03:06:51;;;;;;;;;;;;;;;28.59;50.21;100155.84;1809285;78;20518;-58
2021/08/01 03:09:17;;;;;;;;;;;;;;;28.59;50.23;100151.64;1800839;78;20119;-58
2021/08/01 03:11:43;;;;;;;;;;;;;;;28.59;50.24;100152.23;1796498;78;21780;-57
2021/08/01 03:14:09;;;;;;;;;;;;;;;28.57;50.26;100144.22;1808248;78;20186;-58
2021/08/01 03:16:35;;;;;;;;;;;;;;;28.57;50.27;100148.42;1798257;78;20150;-57
2021/08/01 03:19:01;;;;;;;;;;;;;;;28.56;50.31;100151.00;1802075;78;20442;-57
2021/08/01 03:21:27;;;;;;;;;;;;;;;28.57;50.29;100157.41;1809349;78;20312;-57
2021/08/01 03:23:53;;;;;;;;;;;;;;;28.57;50.31;100153.20;1801674;78;21051;-57
2021/08/01 03:26:19;;;;;;;;;;;;;;;28.58;50.33;100166.02;1803275;78;20258;-57
2021/08/01 03:28:45;;;;;;;;;;;;;;;28.57;50.33;100163.00;1807781;78;20402;-58
2021/08/01 03:31:11;;;;;;;;;;;;;;;28.57;50.34;100158.80;1798051;78;20781;-57
2021/08/01 03:33:37;;;;;;;;;;;;;;;28.56;50.35;100153.80;1809360;78;20207;-58
2021/08/01 03:36:03;;;;;;;;;;;;;;;28.57;50.35;100163.00;1807315;78;20859;-57
2021/08/01 03:38:29;;;;;;;;;;;;;;;28.56;50.39;100155.79;1802804;78;20417;-58
2021/08/01 03:40:56;;;;;;;;;;;;;;;28.56;50.39;100158.59;1801872;78;20467;-57
2021/08/01 03:43:22;;;;;;;;;;;;;;;28.56;50.39;100163.59;1813557;78;20823;-57
2021/08/01 03:45:48;;;;;;;;;;;;;;;28.55;50.40;100159.80;1806009;78;20195;-57
2021/08/01 03:48:14;;;;;;;;;;;;;;;28.55;50.41;100166.20;1807720;78;21303;-58
2021/08/01 03:50:40;;;;;;;;;;;;;;;28.54;50.43;100165.98;1809328;77;20146;-57
2021/08/01 03:53:06;;;;;;;;;;;;;;;28.56;50.44;100183.78;1822548;77;20280;-58
2021/08/01 03:55:32;;;;;;;;;;;;;;;28.54;50.45;100178.59;1796106;78;21436;-57
2021/08/01 03:57:59;;;;;;;;;;;;;;;28.54;50.45;100179.98;1759156;80;20180;-57
2021/08/01 04:00:25;;;;;;;;;;;;;;;28.54;50.45;100182.78;1762880;79;21220;-57
2021/08/01 04:02:52;;;;;;;;;;;;;;;28.54;50.47;100182.78;1763188;80;20168;-57
2021/08/01 04:05:18;;;;;;;;;;;;;;;28.54;50.47;100183.37;1761917;79;20164;-57
2021/08/01 04:07:44;;;;;;;;;;;;;;;28.53;50.48;100190.96;1762602;79;20228;-56
2021/08/01 04:10:10;;;;;;;;;;;;;;;28.54;50.48;100187.58;1767407;79;20156;-57
2021/08/01 04:12:37;;;;;;;;;;;;;;;28.53;50.49;100190.16;1760729;79;20966;-58
2021/08/01 04:15:04;;;;;;;;;;;;;;;28.53;50.51;100190.96;1762968;79;20358;-58
2021/08/01 04:17:33;;;;;;;;;;;;;;;28.53;50.52;100187.36;1819186;77;20450;-57
2021/08/01 04:20:00;;;;;;;;;;;;;;;28.53;50.53;100192.95;1822365;77;20156;-58
2021/08/01 04:22:26;;;;;;;;;;;;;;;28.52;50.50;100200.54;1819650;77;20439;-57
2021/08/01 04:24:53;;;;;;;;;;;;;;;28.52;50.54;100204.74;1819424;77;21078;-57
2021/08/01 04:27:19;;;;;;;;;;;;;;;28.52;50.55;100203.34;1817414;77;20418;-57
2021/08/01 04:29:46;;;;;;;;;;;;;;;28.52;50.55;100206.73;1819812;77;20074;-58
2021/08/01 04:32:12;;;;;;;;;;;;;;;28.52;50.58;100207.54;1820562;77;20831;-58
2021/08/01 04:34:38;;;;;;;;;;;;;;;28.52;50.56;100203.34;1818634;77;20137;-58
2021/08/01 04:37:04;;;;;;;;;;;;;;;28.52;50.56;100202.53;1820190;77;21147;-57
2021/08/01 04:39:30;;;;;;;;;;;;;;;28.52;50.60;100202.53;1817538;77;20159;-57
2021/08/01 04:41:56;;;;;;;;;;;;;;;28.51;50.59;100208.75;1821660;77;20196;-58
2021/08/01 04:44:22;;;;;;;;;;;;;;;28.52;50.57;100208.12;1820883;77;20471;-57
2021/08/01 04:46:48;;;;;;;;;;;;;;;28.51;50.61;100213.55;1816101;77;20184;-58
2021/08/01 04:49:14;;;;;;;;;;;;;;;28.51;50.60;100209.34;1822779;77;21049;-57
2021/08/01 04:51:41;;;;;;;;;;;;;;;28.50;50.61;100208.53;1839574;76;20793;-57
2021/08/01 04:54:07;;;;;;;;;;;;;;;28.50;50.62;100209.13;1846115;76;20174;-57
2021/08/01 04:56:33;;;;;;;;;;;;;;;28.50;50.63;100205.73;1847736;76;20401;-57
2021/08/01 04:58:59;;;;;;;;;;;;;;;28.51;50.63;100206.55;1841911;76;20177;-57
2021/08/01 05:01:25;;;;;;;;;;;;;;;28.50;50.63;100211.33;1842087;76;21980;-57
2021/08/01 05:03:51;;;;;;;;;;;;;;;28.50;50.64;100218.33;1840589;76;20546;-58
2021/08/01 05:06:17;;;;;;;;;;;;;;;28.50;50.64;100223.92;1841044;76;20145;-58
2021/08/01 05:08:44;;;;;;;;;;;;;;;28.50;50.66;100226.73;1840205;76;20307;-58
2021/08/01 05:11:10;;;;;;;;;;;;;;;28.50;50.67;100223.92;1841661;76;20144;-58
2021/08/01 05:13:36;;;;;;;;;;;;;;;28.50;50.67;100223.92;1839584;76;21010;-57
2021/08/01 05:16:02;;;;;;;;;;;;;;;28.50;50.67;100228.72;1841495;76;20194;-57
2021/08/01 05:18:28;;;;;;;;;;;;;;;28.49;50.67;100226.51;1844361;76;20125;-57
2021/08/01 05:20:54;;;;;;;;;;;;;;;28.50;50.69;100223.92;1837623;76;20795;-57
2021/08/01 05:23:20;;;;;;;;;;;;;;;28.50;50.69;100212.73;1840280;76;20225;-58
2021/08/01 05:25:46;;;;;;;;;;;;;;;28.50;50.70;100217.52;1795118;78;20958;-57
2021/08/01 05:28:12;;;;;;;;;;;;;;;28.50;50.70;100214.72;1776356;79;20136;-58
2021/08/01 05:30:38;;;;;;;;;;;;;;;28.50;50.70;100224.52;1785447;79;20214;-57
2021/08/01 05:33:06;;;;;;;;;;;;;;;28.50;50.70;100224.52;1762005;80;20132;-58
2021/08/01 05:35:32;;;;;;;;;;;;;;;28.50;50.73;100223.12;1775746;79;20173;-57
2021/08/01 05:37:59;;;;;;;;;;;;;;;28.50;50.74;100231.52;1772443;79;21316;-57
2021/08/01 05:40:26;;;;;;;;;;;;;;;28.49;50.71;100231.30;1774996;79;20137;-58
2021/08/01 05:42:52;;;;;;;;;;;;;;;28.48;50.74;100231.89;1783193;79;20218;-58
2021/08/01 05:45:18;;;;;;;;;;;;;;;28.48;50.75;100247.28;1777496;79;20355;-57
2021/08/01 05:47:44;;;;;;;;;;;;;;;28.48;50.75;100239.48;1784193;80;20136;-58
2021/08/01 05:50:11;;;;;;;;;;;;;;;28.49;50.76;100246.69;1783378;79;21173;-57
2021/08/01 05:52:37;;;;;;;;;;;;;;;28.48;50.75;100240.87;1844819;76;20458;-58
2021/08/01 05:55:04;;;;;;;;;;;;;;;28.48;50.76;100251.48;1842532;76;20195;-57
2021/08/01 05:57:30;;;;;;;;;;;;;;;28.48;50.77;100251.48;1842911;76;20212;-58
2021/08/01 05:59:56;;;;;;;;;;;;;;;28.48;50.79;100251.48;1849409;76;20449;-58
2021/08/01 06:02:22;;;;;;;;;;;;;;;28.48;50.77;100246.47;1848232;76;22119;-57
2021/08/01 06:04:50;;;;;;;;;;;;;;;28.48;50.77;100248.67;1842865;76;20246;-58
2021/08/01 06:07:16;;;;;;;;;;;;;;;28.48;50.79;100248.67;1848715;76;20163;-57
2021/08/01 06:09:43;;;;;;;;;;;;;;;28.48;50.80;100249.27;1841707;76;20188;-58
2021/08/01 06:12:13;;;;;;;;;;;;;;;28.47;50.79;100250.48;1844015;76;20160;-58
2021/08/01 06:14:39;;;;;;;;;;;;;;;28.47;50.81;100252.69;1848700;76;21531;-58
2021/08/01 06:17:05;;;;;;;;;;;;;;;28.47;50.82;100255.48;1843030;76;20132;-56
2021/08/01 06:19:31;;;;;;;;;;;;;;;28.47;50.82;100252.69;1846732;76;20133;-56
2021/08/01 06:21:57;;;;;;;;;;;;;;;28.47;50.83;100250.48;1846470;76;20223;-56
2021/08/01 06:24:24;;;;;;;;;;;;;;;28.46;50.82;100255.27;1848324;76;20151;-58
2021/08/01 06:26:50;;;;;;;;;;;;;;;28.47;50.84;100254.09;1847295;76;21074;-58
2021/08/01 06:29:16;;;;;;;;;;;;;;;28.46;50.83;100248.87;1843795;76;20220;-56
2021/08/01 06:31:43;;;;;;;;;;;;;;;28.47;50.86;100251.29;1839945;76;20193;-57
2021/08/01 06:34:09;;;;;;;;;;;;;;;28.46;50.85;100247.47;1843749;76;20171;-57
2021/08/01 06:36:35;;;;;;;;;;;;;;;28.46;50.88;100254.46;1842993;76;20130;-57
2021/08/01 06:39:01;;;;;;;;;;;;;;;28.47;50.87;100258.88;1847269;76;21044;-57
2021/08/01 06:41:28;;;;;;;;;;;;;;;28.47;50.87;100251.88;1850273;76;20148;-58
2021/08/01 06:43:54;;;;;;;;;;;;;;;28.46;50.89;100248.87;1845092;76;20478;-57
2021/08/01 06:46:20;;;;;;;;;;;;;;;28.47;50.88;100254.68;1848152;76;20162;-57
2021/08/01 06:48:46;;;;;;;;;;;;;;;28.46;50.88;100257.27;1842367;76;21185;-57
2021/08/01 06:51:12;;;;;;;;;;;;;;;28.46;50.89;100260.06;1839651;76;21909;-57
2021/08/01 06:53:38;;;;;;;;;;;;;;;28.46;50.89;100261.45;1838468;76;20338;-57
2021/08/01 06:56:06;;;;;;;;;;;;;;;28.46;50.90;100259.47;1837651;76;20269;-57
2021/08/01 06:58:32;;;;;;;;;;;;;;;28.47;50.89;100268.08;1837060;76;20163;-57
2021/08/01 07:00:59;;;;;;;;;;;;;;;28.46;50.90;100271.25;1838107;76;20163;-57
2021/08/01 07:03:26;;;;;;;;;;;;;;;28.46;50.90;100269.86;1839481;76;21157;-57
2021/08/01 07:05:52;;;;;;;;;;;;;;;28.46;50.90;100267.05;1839888;76;20156;-57
2021/08/01 07:08:19;;;;;;;;;;;;;;;28.46;50.90;100274.86;1846754;76;20226;-57
2021/08/01 07:10:45;;;;;;;;;;;;;;;28.46;50.89;100269.27;1838150;76;20450;-57
2021/08/01 07:13:11;;;;;;;;;;;;;;;28.47;50.91;100268.67;1839914;76;20355;-57
2021/08/01 07:15:37;;;;;;;;;;;;;;;28.46;50.90;100267.86;1841893;76;21059;-57
2021/08/01 07:18:03;;;;;;;;;;;;;;;28.46;50.89;100271.25;1841010;76;20176;-57
2021/08/01 07:20:29;;;;;;;;;;;;;;;28.46;50.90;100264.25;1841843;76;20208;-54
2021/08/01 07:22:56;;;;;;;;;;;;;;;28.46;50.91;100262.27;1839861;76;20219;-57
2021/08/01 07:25:23;;;;;;;;;;;;;;;28.46;50.88;100257.27;1839303;76;20183;-57
2021/08/01 07:27:50;;;;;;;;;;;;;;;28.46;50.88;100261.45;1839479;76;21124;-57
2021/08/01 07:30:16;;;;;;;;;;;;;;;28.46;50.88;100260.06;1840730;76;20071;-57
2021/08/01 07:32:42;;;;;;;;;;;;;;;28.46;50.89;100261.45;1843217;76;20143;-57
2021/08/01 07:35:09;;;;;;;;;;;;;;;28.46;50.87;100251.07;1839561;76;20176;-56
2021/08/01 07:37:35;;;;;;;;;;;;;;;28.46;50.87;100253.06;1839290;76;20157;-57
2021/08/01 07:40:01;;;;;;;;;;;;;;;28.47;50.87;100257.48;1841123;76;21080;-57
2021/08/01 07:42:27;;;;;;;;;;;;;;;28.46;50.87;100255.27;1840724;77;20125;-57
2021/08/01 07:45:01;;;;;;;;;;;;;;;28.45;50.86;100243.05;1838718;76;20178;-57
2021/08/01 07:47:24;;;;;;;;;;;;;;;28.47;50.88;100244.89;1838898;76;20202;-57
2021/08/01 07:49:51;;;;;;;;;;;;;;;28.46;50.85;100241.88;1841299;76;20127;-57
2021/08/01 07:52:20;;;;;;;;;;;;;;;28.45;50.84;100248.65;1842923;76;21113;-57
2021/08/01 07:54:46;;;;;;;;;;;;;;;28.46;50.83;100251.07;1841633;76;20155;-57
2021/08/01 07:57:24;;;;;;;;;;;;;;;28.46;50.84;100249.67;1837159;76;20220;-57
2021/08/01 07:59:50;;;;;;;;;;;;;;;28.47;50.83;100249.89;1841423;76;20133;-57
2021/08/01 08:02:16;;;;;;;;;;;;;;;28.46;50.83;100243.27;1838967;76;20229;-57
2021/08/01 08:04:42;;;;;;;;;;;;;;;28.47;50.81;100251.29;1840959;76;21490;-56
2021/08/01 08:07:09;;;;;;;;;;;;;;;28.46;50.81;100248.27;1836593;76;20163;-57
2021/08/01 08:09:34;;;;;;;;;;;;;;;28.47;50.79;100244.89;1836553;76;20158;-57
2021/08/01 08:12:01;;;;;;;;;;;;;;;28.47;50.78;100242.89;1837920;76;20419;-57
2021/08/01 08:14:27;;;;;;;;;;;;;;;28.46;50.77;100244.08;1837767;76;20333;-57
2021/08/01 08:16:53;;;;;;;;;;;;;;;28.47;50.77;100238.70;1834993;76;21094;-57
2021/08/01 08:19:19;;;;;;;;;;;;;;;28.48;50.77;100238.08;1841763;76;20195;-58
2021/08/01 08:21:45;;;;;;;;;;;;;;;28.47;50.76;100242.09;1836584;76;20177;-58
2021/08/01 08:24:11;;;;;;;;;;;;;;;28.48;50.77;100250.67;1841049;76;20280;-57
2021/08/01 08:26:38;;;;;;;;;;;;;;;28.48;50.75;100250.08;1840779;77;20374;-58
2021/08/01 08:29:04;;;;;;;;;;;;;;;28.49;50.75;100254.50;1839205;76;21679;-58
2021/08/01 08:31:30;;;;;;;;;;;;;;;28.49;50.74;100246.69;1837433;76;20760;-58
2021/08/01 08:33:57;;;;;;;;;;;;;;;28.49;50.71;100250.30;1841112;76;20536;-58
2021/08/01 08:36:23;;;;;;;;;;;;;;;28.49;50.71;100249.48;1838804;76;20593;-58
2021/08/01 08:38:49;;;;;;;;;;;;;;;28.49;50.71;100246.69;1839979;76;20378;-58
2021/08/01 08:41:16;;;;;;;;;;;;;;;28.49;50.69;100250.89;1838550;76;21047;-58
2021/08/01 08:43:45;;;;;;;;;;;;;;;28.50;50.70;100241.31;1844192;76;20158;-58
2021/08/01 08:46:12;;;;;;;;;;;;;;;28.49;50.70;100246.69;1838275;76;20141;-58
2021/08/01 08:48:38;;;;;;;;;;;;;;;28.50;50.69;100245.51;1841357;76;20195;-58
2021/08/01 08:51:10;;;;;;;;;;;;;;;28.50;50.70;100252.50;1842780;76;20120;-58
2021/08/01 08:53:51;;;;;;;;;;;;;;;28.51;50.72;100247.13;1836383;76;21566;-58
2021/08/01 08:56:17;;;;;;;;;;;;;;;28.51;50.68;100231.73;1840628;76;21572;-56
2021/08/01 08:58:45;;;;;;;;;;;;;;;28.50;50.69;100230.92;1806133;77;20210;-57
2021/08/01 09:01:11;;;;;;;;;;;;;;;28.51;50.69;100231.14;1800849;77;20877;-56
2021/08/01 09:03:37;;;;;;;;;;;;;;;28.50;50.68;100236.52;1839654;76;20153;-58
2021/08/01 09:06:04;;;;;;;;;;;;;;;28.51;50.71;100233.13;1839661;76;21152;-57
2021/08/01 09:08:30;;;;;;;;;;;;;;;28.52;50.69;100234.72;1837446;76;20195;-56
2021/08/01 09:10:58;;;;;;;;;;;;;;;28.51;50.69;100238.73;1844423;76;20475;-58
2021/08/01 09:13:50;;;;;;;;;;;;;;;28.51;50.69;100228.94;1833220;76;20271;-57
2021/08/01 09:16:18;;;;;;;;;;;;;;;28.51;50.68;100227.53;1840237;76;20161;-58
2021/08/01 09:18:44;;;;;;;;;;;;;;;28.51;50.69;100231.73;1836240;76;21301;-58
2021/08/01 09:21:29;;;;;;;;;;;;;;;28.52;50.68;100234.72;1839468;76;20442;-58
2021/08/01 09:23:55;;;;;;;;;;;;;;;28.51;50.68;100233.13;1841922;76;20340;-58
2021/08/01 09:26:21;;;;;;;;;;;;;;;28.52;50.67;100228.53;1838295;76;20375;-58
2021/08/01 09:29:01;;;;;;;;;;;;;;;28.52;50.68;100227.72;1837994;76;20466;-57
2021/08/01 09:31:27;;;;;;;;;;;;;;;28.51;50.68;100226.94;1841713;76;20910;-57
2021/08/01 09:33:54;;;;;;;;;;;;;;;28.52;50.68;100226.32;1842176;76;20399;-57
2021/08/01 09:36:23;;;;;;;;;;;;;;;28.52;50.69;100229.12;1837845;76;20106;-57
2021/08/01 09:39:00;;;;;;;;;;;;;;;28.52;50.68;100229.12;1841264;76;20501;-58
2021/08/01 09:41:37;;;;;;;;;;;;;;;28.52;50.69;100224.92;1808499;77;20103;-59
2021/08/01 09:44:05;;;;;;;;;;;;;;;28.52;50.68;100224.33;1838405;76;21150;-59
2021/08/01 09:46:39;;;;;;;;;;;;;;;28.52;50.69;100217.33;1839611;76;20412;-57
2021/08/01 09:49:10;;;;;;;;;;;;;;;28.53;50.67;100204.15;1838570;76;20395;-57
2021/08/01 09:51:47;;;;;;;;;;;;;;;28.54;50.68;100207.16;1831153;76;20146;-57
2021/08/01 09:54:14;;;;;;;;;;;;;;;28.54;50.66;100209.96;1804436;78;20181;-57
2021/08/01 09:56:54;;;;;;;;;;;;;;;28.54;50.67;100208.56;1804663;78;21141;-58
2021/08/01 09:59:22;;;;;;;;;;;;;;;28.55;50.65;100207.38;1800930;78;20153;-59
2021/08/01 10:01:51;;;;;;;;;;;;;;;28.54;50.67;100207.97;1806451;78;20224;-58
2021/08/01 10:04:26;;;;;;;;;;;;;;;28.56;50.67;100206.16;1799357;78;20833;-58
2021/08/01 10:07:00;;;;;;;;;;;;;;;28.56;50.64;100201.97;1801838;77;20137;-58
2021/08/01 10:09:26;;;;;;;;;;;;;;;28.57;50.64;100202.99;1800320;78;21078;-57
2021/08/01 10:11:53;;;;;;;;;;;;;;;28.57;50.63;100201.59;1795741;78;20146;-59
2021/08/01 10:14:19;;;;;;;;;;;;;;;28.58;50.63;100204.61;1800660;78;20361;-58
2021/08/01 10:16:45;;;;;;;;;;;;;;;28.59;50.62;100191.42;1804445;78;20824;-59
2021/08/01 10:19:12;;;;;;;;;;;;;;;28.60;50.57;100184.02;1796663;78;20194;-59
2021/08/01 10:21:38;;;;;;;;;;;;;;;28.62;50.55;100180.84;1794288;78;21022;-57
2021/08/01 10:24:05;;;;;;;;;;;;;;;28.64;50.53;100177.66;1800056;78;20188;-58
2021/08/01 10:26:38;;;;;;;;;;;;;;;28.65;50.52;100171.66;1805153;78;20470;-58
2021/08/01 10:29:10;;;;;;;;;;;;;;;28.67;50.50;100174.09;1798741;78;22140;-58
2021/08/01 10:31:39;;;;;;;;;;;;;;;28.68;50.45;100171.50;1804583;78;20153;-58
2021/08/01 10:34:11;;;;;;;;;;;;;;;28.69;50.42;100168.30;1801996;78;21149;-58
2021/08/01 10:36:38;;;;;;;;;;;;;;;28.70;50.39;100165.73;1794850;78;20384;-58
2021/08/01 10:39:05;;;;;;;;;;;;;;;28.70;50.36;100162.94;1801811;78;20225;-58
2021/08/01 10:41:32;;;;;;;;;;;;;;;28.72;50.36;100170.37;1796668;78;20129;-58
2021/08/01 10:44:07;;;;;;;;;;;;;;;28.73;50.33;100173.35;1802025;78;20217;-57
2021/08/01 10:46:34;;;;;;;;;;;;;;;28.75;50.32;100173.78;1796894;78;21141;-57
2021/08/01 10:49:02;;;;;;;;;;;;;;;28.77;50.27;100169.98;1801263;78;20186;-57
2021/08/01 10:51:29;;;;;;;;;;;;;;;28.80;50.27;100175.42;1798076;78;20151;-58
2021/08/01 10:54:15;;;;;;;;;;;;;;;28.80;50.24;100162.23;1819222;77;20161;-59
2021/08/01 10:56:41;;;;;;;;;;;;;;;28.82;50.21;100166.83;1818727;78;20263;-56
2021/08/01 10:59:07;;;;;;;;;;;;;;;28.83;50.18;100169.84;1819953;77;22146;-57
2021/08/01 11:01:37;;;;;;;;;;;;;;;28.85;50.17;100173.66;1795223;78;20431;-57
2021/08/01 11:04:26;;;;;;;;;;;;;;;28.86;50.15;100173.25;1816458;77;20154;-57
2021/08/01 11:06:52;;;;;;;;;;;;;;;28.86;50.14;100154.25;1820944;77;20189;-57
2021/08/01 11:09:18;;;;;;;;;;;;;;;28.88;50.12;100156.88;1819539;77;20518;-58
2021/08/01 11:11:48;;;;;;;;;;;;;;;28.89;50.09;100152.89;1819211;77;23322;-59
2021/08/01 11:14:50;;;;;;;;;;;;;;;28.90;50.08;100147.48;1818610;77;20142;-58
2021/08/01 11:17:21;;;;;;;;;;;;;;;28.92;50.06;100154.91;1820866;77;20239;-58
2021/08/01 11:19:47;;;;;;;;;;;;;;;28.93;50.03;100137.52;1817252;77;20159;-59
2021/08/01 11:22:43;;;;;;;;;;;;;;;28.95;50.02;100138.72;1822308;77;20211;-59
2021/08/01 11:25:26;;;;;;;;;;;;;;;28.95;50.01;100135.91;1819472;77;20800;-58
2021/08/01 11:28:19;;;;;;;;;;;;;;;28.97;49.98;100132.73;1820586;77;20108;-57
2021/08/01 11:31:01;;;;;;;;;;;;;;;28.98;49.96;100128.75;1816740;77;20077;-58
2021/08/01 11:33:36;;;;;;;;;;;;;;;28.98;49.96;100121.13;1816921;77;20188;-57
2021/08/01 11:36:18;;;;;;;;;;;;;;;29.00;49.94;100113.15;1820423;77;20195;-57
2021/08/01 11:38:53;;;;;;;;;;;;;;;29.02;49.94;100116.38;1818697;77;21096;-58
2021/08/01 11:44:05;;;;;;;;;;;;;;;29.03;49.90;100106.75;1817593;77;20181;-57
2021/08/01 11:47:04;;;;;;;;;;;;;;;29.05;49.91;100108.58;1818892;77;20423;-58
2021/08/01 11:49:44;;;;;;;;;;;;;;;29.07;49.89;100107.39;1819192;77;20190;-58
2021/08/01 11:52:10;;;;;;;;;;;;;;;29.09;49.85;100106.39;1822008;76;21971;-58
2021/08/01 11:54:39;;;;;;;;;;;;;;;29.11;49.86;100108.22;1840792;76;20153;-59
2021/08/01 11:57:06;;;;;;;;;;;;;;;29.13;49.86;100105.81;1837128;76;20157;-58
2021/08/01 11:59:32;;;;;;;;;;;;;;;29.14;49.85;100101.22;1836044;76;20452;-59
2021/08/01 12:01:59;;;;;;;;;;;;;;;29.15;49.85;100097.83;1845132;76;20175;-56
2021/08/01 12:04:25;;;;;;;;;;;;;;;29.17;49.84;100090.63;1843347;76;21888;-57
2021/08/01 12:06:57;;;;;;;;;;;;;;;29.18;49.84;100089.44;1836654;76;20160;-57
2021/08/01 12:09:28;;;;;;;;;;;;;;;29.21;49.83;100096.23;1837301;76;20130;-58
2021/08/01 12:11:58;;;;;;;;;;;;;;;29.22;49.81;100086.64;1843280;76;20129;-58
2021/08/01 12:14:28;;;;;;;;;;;;;;;29.24;49.81;100086.45;1840975;76;20138;-58
2021/08/01 12:17:07;;;;;;;;;;;;;;;29.26;49.81;100089.67;1846834;76;20565;-58
2021/08/01 12:19:37;;;;;;;;;;;;;;;29.27;49.78;100085.67;1843656;76;20155;-58
2021/08/01 12:22:12;;;;;;;;;;;;;;;29.30;49.77;100084.11;1841386;76;20371;-58
2021/08/01 12:24:41;;;;;;;;;;;;;;;29.31;49.76;100078.71;1841621;76;20414;-58
2021/08/01 12:27:12;;;;;;;;;;;;;;;29.32;49.75;100075.50;1838507;76;20556;-57
2021/08/01 12:29:53;;;;;;;;;;;;;;;29.34;49.75;100072.31;1839784;76;20999;-58
2021/08/01 12:32:39;;;;;;;;;;;;;;;29.35;49.73;100076.72;1794722;78;20416;-58
2021/08/01 12:35:22;;;;;;;;;;;;;;;29.37;49.73;100072.91;1753632;81;20426;-58
2021/08/01 12:38:00;;;;;;;;;;;;;;;29.37;49.72;100075.12;1787303;78;20171;-57
2021/08/01 12:40:44;;;;;;;;;;;;;;;29.39;49.68;100076.14;1785058;78;20456;-57
2021/08/01 12:43:16;;;;;;;;;;;;;;;29.41;49.66;100076.53;1778246;78;21051;-57
2021/08/01 12:45:44;;;;;;;;;;;;;;;29.42;49.66;100071.94;1780829;78;20552;-57